Terminal Aerodrome Forecast
Issued by NWS Cleveland, OH

Home | Current Version | Previous Version | Graphics & Text | Print | Product List | Glossary Off
Versions: 1 2 3 4 5 6 7 8 9 10 11 12 13 14 15 16 17 18 19 20 21 22

000
FTUS41 KCLE 302300
TAFYNG
TAF
KYNG 302324Z 3100/3124 32008KT P6SM BKN025
      TEMPO 3100/3102 4SM -SHSN
     FM310400 28004KT P6SM BKN035
     FM311300 22006KT P6SM SCT100
     FM312300 24010KT P6SM BKN100=

USA.gov is the U.S. government's official web portal to all federal, state and local government web resources and services.